« Back
NWS Peachtree City, Ga » Text Product » AHN Terminal Aerodrome Forecast


Printer-friendly Version
Current Version              Previous Versions:   1  2  3  4  5  6  7  8  9  

Terminal Aerodrome Forecast

896
FTUS42 KFFC 251120
TAFAHN
TAF
KAHN 251120Z 2512/2612 17003KT 5SM -SHRA SCT025 BKN045
      TEMPO 2512/2515 3SM TSRA BR BKN015CB
     FM251600 18008G16KT P6SM BKN025 OVC050
     FM251800 22010G16KT P6SM VCSH SCT012 BKN025
      TEMPO 2520/2524 VRB15G30KT 2SM TSRA BKN012CB
     FM260000 23009G15KT P6SM BKN050
     FM260500 24010G16KT P6SM SCT050=

USA.gov is the U.S. government's official web portal to all federal, state and local government web resources and services.